sensor_id;sensor_type;location;lat;lon;timestamp;temperature;humidity
3528;DHT22;1778;47.966;7.854;2024-01-30T00:00:40;6.00;99.90
3528;DHT22;1778;47.966;7.854;2024-01-30T00:01:41;6.00;99.90
3528;DHT22;1778;47.966;7.854;2024-01-30T00:02:43;6.00;99.90
3528;DHT22;1778;47.966;7.854;2024-01-30T00:03:44;6.10;99.90
3528;DHT22;1778;47.966;7.854;2024-01-30T00:04:51;6.00;99.90
3528;DHT22;1778;47.966;7.854;2024-01-30T00:05:53;6.00;99.90
3528;DHT22;1778;47.966;7.854;2024-01-30T00:06:57;6.00;99.90
3528;DHT22;1778;47.966;7.854;2024-01-30T00:07:59;6.00;99.90
3528;DHT22;1778;47.966;7.854;2024-01-30T00:09:00;6.10;99.90
3528;DHT22;1778;47.966;7.854;2024-01-30T00:10:02;6.00;99.90
3528;DHT22;1778;47.966;7.854;2024-01-30T00:11:04;6.10;99.90
3528;DHT22;1778;47.966;7.854;2024-01-30T00:12:06;6.10;99.90
3528;DHT22;1778;47.966;7.854;2024-01-30T00:13:07;6.10;99.90
3528;DHT22;1778;47.966;7.854;2024-01-30T00:14:09;6.00;99.90
3528;DHT22;1778;47.966;7.854;2024-01-30T00:15:10;6.00;99.90
3528;DHT22;1778;47.966;7.854;2024-01-30T00:16:24;6.10;99.90
3528;DHT22;1778;47.966;7.854;2024-01-30T00:17:26;6.10;99.90
3528;DHT22;1778;47.966;7.854;2024-01-30T00:18:28;6.00;99.90
3528;DHT22;1778;47.966;7.854;2024-01-30T00:19:30;6.00;99.90
3528;DHT22;1778;47.966;7.854;2024-01-30T00:20:31;6.00;99.90
3528;DHT22;1778;47.966;7.854;2024-01-30T00:21:33;6.00;99.90
3528;DHT22;1778;47.966;7.854;2024-01-30T00:22:34;5.90;99.90
3528;DHT22;1778;47.966;7.854;2024-01-30T00:23:36;5.90;99.90
3528;DHT22;1778;47.966;7.854;2024-01-30T00:24:37;5.90;99.90
3528;DHT22;1778;47.966;7.854;2024-01-30T00:25:39;6.00;99.90
3528;DHT22;1778;47.966;7.854;2024-01-30T00:26:40;5.90;99.90
3528;DHT22;1778;47.966;7.854;2024-01-30T00:27:42;5.90;99.90
3528;DHT22;1778;47.966;7.854;2024-01-30T00:28:43;5.90;99.90
3528;DHT22;1778;47.966;7.854;2024-01-30T00:29:45;5.90;99.90
3528;DHT22;1778;47.966;7.854;2024-01-30T00:30:47;5.90;99.90
3528;DHT22;1778;47.966;7.854;2024-01-30T00:31:48;5.90;99.90
3528;DHT22;1778;47.966;7.854;2024-01-30T00:32:49;5.90;99.90
3528;DHT22;1778;47.966;7.854;2024-01-30T00:33:51;5.90;99.90
3528;DHT22;1778;47.966;7.854;2024-01-30T00:34:54;5.90;99.90
3528;DHT22;1778;47.966;7.854;2024-01-30T00:35:56;5.90;99.90
3528;DHT22;1778;47.966;7.854;2024-01-30T00:36:57;5.90;99.90
3528;DHT22;1778;47.966;7.854;2024-01-30T00:37:58;5.80;99.90
3528;DHT22;1778;47.966;7.854;2024-01-30T00:39:00;5.90;99.90
3528;DHT22;1778;47.966;7.854;2024-01-30T00:40:01;5.80;99.90
3528;DHT22;1778;47.966;7.854;2024-01-30T00:41:03;5.80;99.90
3528;DHT22;1778;47.966;7.854;2024-01-30T00:42:05;5.80;99.90
3528;DHT22;1778;47.966;7.854;2024-01-30T00:43:06;5.80;99.90
3528;DHT22;1778;47.966;7.854;2024-01-30T00:44:07;5.80;99.90
3528;DHT22;1778;47.966;7.854;2024-01-30T00:45:14;5.90;99.90
3528;DHT22;1778;47.966;7.854;2024-01-30T00:46:15;5.90;99.90
3528;DHT22;1778;47.966;7.854;2024-01-30T00:47:17;6.00;99.90
3528;DHT22;1778;47.966;7.854;2024-01-30T00:48:18;5.90;99.90
3528;DHT22;1778;47.966;7.854;2024-01-30T00:49:20;5.90;99.90
3528;DHT22;1778;47.966;7.854;2024-01-30T00:50:21;5.90;99.90
3528;DHT22;1778;47.966;7.854;2024-01-30T00:51:23;5.90;99.90
3528;DHT22;1778;47.966;7.854;2024-01-30T00:52:25;5.90;99.90
3528;DHT22;1778;47.966;7.854;2024-01-30T00:53:26;5.90;99.90
3528;DHT22;1778;47.966;7.854;2024-01-30T00:54:29;5.90;99.90
3528;DHT22;1778;47.966;7.854;2024-01-30T00:55:30;5.90;99.90
3528;DHT22;1778;47.966;7.854;2024-01-30T00:56:32;5.80;99.90
3528;DHT22;1778;47.966;7.854;2024-01-30T00:57:34;5.80;99.90
3528;DHT22;1778;47.966;7.854;2024-01-30T00:58:35;5.80;99.90
3528;DHT22;1778;47.966;7.854;2024-01-30T00:59:37;5.80;99.90
3528;DHT22;1778;47.966;7.854;2024-01-30T01:00:39;5.80;99.90
3528;DHT22;1778;47.966;7.854;2024-01-30T01:01:40;5.80;99.90
3528;DHT22;1778;47.966;7.854;2024-01-30T01:02:42;5.90;99.90
3528;DHT22;1778;47.966;7.854;2024-01-30T01:03:44;5.80;99.90
3528;DHT22;1778;47.966;7.854;2024-01-30T01:04:46;5.80;99.90
3528;DHT22;1778;47.966;7.854;2024-01-30T01:05:47;5.80;99.90
3528;DHT22;1778;47.966;7.854;2024-01-30T01:06:48;5.80;99.90
3528;DHT22;1778;47.966;7.854;2024-01-30T01:07:50;5.80;99.90
3528;DHT22;1778;47.966;7.854;2024-01-30T01:08:52;5.80;99.90
3528;DHT22;1778;47.966;7.854;2024-01-30T01:09:54;5.70;99.90
3528;DHT22;1778;47.966;7.854;2024-01-30T01:10:55;5.70;99.90
3528;DHT22;1778;47.966;7.854;2024-01-30T01:11:57;5.80;99.90
3528;DHT22;1778;47.966;7.854;2024-01-30T01:12:58;5.80;99.90
3528;DHT22;1778;47.966;7.854;2024-01-30T01:13:59;5.80;99.90
3528;DHT22;1778;47.966;7.854;2024-01-30T01:15:01;5.90;99.90
3528;DHT22;1778;47.966;7.854;2024-01-30T01:16:04;5.90;99.90
3528;DHT22;1778;47.966;7.854;2024-01-30T01:17:06;5.90;99.90
3528;DHT22;1778;47.966;7.854;2024-01-30T01:18:07;5.80;99.90
3528;DHT22;1778;47.966;7.854;2024-01-30T01:19:09;5.80;99.90
3528;DHT22;1778;47.966;7.854;2024-01-30T01:20:11;5.80;99.90
3528;DHT22;1778;47.966;7.854;2024-01-30T01:21:12;5.80;99.90
3528;DHT22;1778;47.966;7.854;2024-01-30T01:22:16;5.90;99.90
3528;DHT22;1778;47.966;7.854;2024-01-30T01:23:18;5.80;99.90
3528;DHT22;1778;47.966;7.854;2024-01-30T01:24:20;5.80;99.90
3528;DHT22;1778;47.966;7.854;2024-01-30T01:25:21;5.80;99.90
3528;DHT22;1778;47.966;7.854;2024-01-30T01:26:23;5.80;99.90
3528;DHT22;1778;47.966;7.854;2024-01-30T01:27:25;5.80;99.90
3528;DHT22;1778;47.966;7.854;2024-01-30T01:28:26;5.80;99.90
3528;DHT22;1778;47.966;7.854;2024-01-30T01:29:28;5.80;99.90
3528;DHT22;1778;47.966;7.854;2024-01-30T01:30:30;5.80;99.90
3528;DHT22;1778;47.966;7.854;2024-01-30T01:31:31;5.80;99.90
3528;DHT22;1778;47.966;7.854;2024-01-30T01:32:33;5.80;99.90
3528;DHT22;1778;47.966;7.854;2024-01-30T01:33:34;5.80;99.90
3528;DHT22;1778;47.966;7.854;2024-01-30T01:34:38;5.80;99.90
3528;DHT22;1778;47.966;7.854;2024-01-30T01:35:40;5.80;99.90
3528;DHT22;1778;47.966;7.854;2024-01-30T01:36:41;5.80;99.90
3528;DHT22;1778;47.966;7.854;2024-01-30T01:37:43;5.70;99.90
3528;DHT22;1778;47.966;7.854;2024-01-30T01:38:44;5.80;99.90
3528;DHT22;1778;47.966;7.854;2024-01-30T01:39:46;5.80;99.90
3528;DHT22;1778;47.966;7.854;2024-01-30T01:40:47;5.80;99.90
3528;DHT22;1778;47.966;7.854;2024-01-30T01:41:49;5.80;99.90
3528;DHT22;1778;47.966;7.854;2024-01-30T01:42:51;5.80;99.90
3528;DHT22;1778;47.966;7.854;2024-01-30T01:43:55;5.80;99.90
3528;DHT22;1778;47.966;7.854;2024-01-30T01:44:57;5.80;99.90
3528;DHT22;1778;47.966;7.854;2024-01-30T01:45:58;5.80;99.90
3528;DHT22;1778;47.966;7.854;2024-01-30T01:47:00;5.80;99.90
3528;DHT22;1778;47.966;7.854;2024-01-30T01:48:02;5.80;99.90
3528;DHT22;1778;47.966;7.854;2024-01-30T01:49:05;5.80;99.90
3528;DHT22;1778;47.966;7.854;2024-01-30T01:50:07;5.90;99.90
3528;DHT22;1778;47.966;7.854;2024-01-30T01:51:09;5.80;99.90
3528;DHT22;1778;47.966;7.854;2024-01-30T01:52:11;5.70;99.90
3528;DHT22;1778;47.966;7.854;2024-01-30T01:53:13;5.70;99.90
3528;DHT22;1778;47.966;7.854;2024-01-30T01:54:15;5.70;99.90
3528;DHT22;1778;47.966;7.854;2024-01-30T01:55:19;5.70;99.90
3528;DHT22;1778;47.966;7.854;2024-01-30T01:56:23;5.70;99.90
3528;DHT22;1778;47.966;7.854;2024-01-30T01:57:25;5.70;99.90
3528;DHT22;1778;47.966;7.854;2024-01-30T01:58:28;5.60;99.90
3528;DHT22;1778;47.966;7.854;2024-01-30T01:59:30;5.50;99.90
3528;DHT22;1778;47.966;7.854;2024-01-30T02:00:32;5.50;99.90
3528;DHT22;1778;47.966;7.854;2024-01-30T02:01:36;5.50;99.90
3528;DHT22;1778;47.966;7.854;2024-01-30T02:02:39;5.50;99.90
3528;DHT22;1778;47.966;7.854;2024-01-30T02:03:41;5.60;99.90
3528;DHT22;1778;47.966;7.854;2024-01-30T02:04:43;5.60;99.90
3528;DHT22;1778;47.966;7.854;2024-01-30T02:05:45;5.60;99.90
3528;DHT22;1778;47.966;7.854;2024-01-30T02:06:47;5.50;99.90
3528;DHT22;1778;47.966;7.854;2024-01-30T02:07:50;5.50;99.90
3528;DHT22;1778;47.966;7.854;2024-01-30T02:08:52;5.50;99.90
3528;DHT22;1778;47.966;7.854;2024-01-30T02:09:54;5.50;99.90
3528;DHT22;1778;47.966;7.854;2024-01-30T02:10:56;5.50;99.90
3528;DHT22;1778;47.966;7.854;2024-01-30T02:11:58;5.50;99.90
3528;DHT22;1778;47.966;7.854;2024-01-30T02:12:59;5.60;99.90
3528;DHT22;1778;47.966;7.854;2024-01-30T02:14:04;5.60;99.90
3528;DHT22;1778;47.966;7.854;2024-01-30T02:15:06;5.60;99.90
3528;DHT22;1778;47.966;7.854;2024-01-30T02:16:09;5.60;99.90
3528;DHT22;1778;47.966;7.854;2024-01-30T02:17:12;5.70;99.90
3528;DHT22;1778;47.966;7.854;2024-01-30T02:18:13;5.60;99.90
3528;DHT22;1778;47.966;7.854;2024-01-30T02:19:15;5.60;99.90
3528;DHT22;1778;47.966;7.854;2024-01-30T02:20:17;5.70;99.90
3528;DHT22;1778;47.966;7.854;2024-01-30T02:21:20;5.70;99.90
3528;DHT22;1778;47.966;7.854;2024-01-30T02:22:22;5.80;99.90
3528;DHT22;1778;47.966;7.854;2024-01-30T02:23:25;5.80;99.90
3528;DHT22;1778;47.966;7.854;2024-01-30T02:24:27;5.70;99.90
3528;DHT22;1778;47.966;7.854;2024-01-30T02:25:33;5.60;99.90
3528;DHT22;1778;47.966;7.854;2024-01-30T02:26:35;5.60;99.90
3528;DHT22;1778;47.966;7.854;2024-01-30T02:27:36;5.60;99.90
3528;DHT22;1778;47.966;7.854;2024-01-30T02:28:38;5.60;99.90
3528;DHT22;1778;47.966;7.854;2024-01-30T02:29:40;5.60;99.90
3528;DHT22;1778;47.966;7.854;2024-01-30T02:30:45;5.60;99.90
3528;DHT22;1778;47.966;7.854;2024-01-30T02:31:47;5.60;99.90
3528;DHT22;1778;47.966;7.854;2024-01-30T02:32:48;5.60;99.90
3528;DHT22;1778;47.966;7.854;2024-01-30T02:33:50;5.60;99.90
3528;DHT22;1778;47.966;7.854;2024-01-30T02:34:51;5.60;99.90
3528;DHT22;1778;47.966;7.854;2024-01-30T02:35:53;5.60;99.90
3528;DHT22;1778;47.966;7.854;2024-01-30T02:36:54;5.60;99.90
3528;DHT22;1778;47.966;7.854;2024-01-30T02:37:56;5.60;99.90
3528;DHT22;1778;47.966;7.854;2024-01-30T02:38:57;5.50;99.90
3528;DHT22;1778;47.966;7.854;2024-01-30T02:39:59;5.50;99.90
3528;DHT22;1778;47.966;7.854;2024-01-30T02:41:00;5.60;99.90
3528;DHT22;1778;47.966;7.854;2024-01-30T02:42:01;5.60;99.90
3528;DHT22;1778;47.966;7.854;2024-01-30T02:43:04;5.60;99.90
3528;DHT22;1778;47.966;7.854;2024-01-30T02:44:06;5.60;99.90
3528;DHT22;1778;47.966;7.854;2024-01-30T02:45:08;5.50;99.90
3528;DHT22;1778;47.966;7.854;2024-01-30T02:46:09;5.50;99.90
3528;DHT22;1778;47.966;7.854;2024-01-30T02:47:11;5.50;99.90
3528;DHT22;1778;47.966;7.854;2024-01-30T02:48:12;5.50;99.90
3528;DHT22;1778;47.966;7.854;2024-01-30T02:49:14;5.50;99.90
3528;DHT22;1778;47.966;7.854;2024-01-30T02:50:16;5.50;99.90
3528;DHT22;1778;47.966;7.854;2024-01-30T02:51:17;5.50;99.90
3528;DHT22;1778;47.966;7.854;2024-01-30T02:52:19;5.50;99.90
3528;DHT22;1778;47.966;7.854;2024-01-30T02:53:21;5.50;99.90
3528;DHT22;1778;47.966;7.854;2024-01-30T02:54:23;5.40;99.90
3528;DHT22;1778;47.966;7.854;2024-01-30T02:55:24;5.40;99.90
3528;DHT22;1778;47.966;7.854;2024-01-30T02:56:25;5.40;99.90
3528;DHT22;1778;47.966;7.854;2024-01-30T02:57:28;5.40;99.90
3528;DHT22;1778;47.966;7.854;2024-01-30T02:58:30;5.40;99.90
3528;DHT22;1778;47.966;7.854;2024-01-30T02:59:31;5.40;99.90
3528;DHT22;1778;47.966;7.854;2024-01-30T03:00:34;5.40;99.90
3528;DHT22;1778;47.966;7.854;2024-01-30T03:01:46;5.40;99.90
3528;DHT22;1778;47.966;7.854;2024-01-30T03:02:48;5.40;99.90
3528;DHT22;1778;47.966;7.854;2024-01-30T03:03:49;5.40;99.90
3528;DHT22;1778;47.966;7.854;2024-01-30T03:04:51;5.50;99.90
3528;DHT22;1778;47.966;7.854;2024-01-30T03:05:53;5.40;99.90
3528;DHT22;1778;47.966;7.854;2024-01-30T03:06:54;5.50;99.90
3528;DHT22;1778;47.966;7.854;2024-01-30T03:07:55;5.40;99.90
3528;DHT22;1778;47.966;7.854;2024-01-30T03:08:57;5.30;99.90
3528;DHT22;1778;47.966;7.854;2024-01-30T03:09:59;5.40;99.90
3528;DHT22;1778;47.966;7.854;2024-01-30T03:11:00;5.40;99.90
3528;DHT22;1778;47.966;7.854;2024-01-30T03:12:02;5.40;99.90
3528;DHT22;1778;47.966;7.854;2024-01-30T03:13:04;5.40;99.90
3528;DHT22;1778;47.966;7.854;2024-01-30T03:14:05;5.50;99.90
3528;DHT22;1778;47.966;7.854;2024-01-30T03:15:07;5.50;99.90
3528;DHT22;1778;47.966;7.854;2024-01-30T03:16:11;5.50;99.90
3528;DHT22;1778;47.966;7.854;2024-01-30T03:17:12;5.50;99.90
3528;DHT22;1778;47.966;7.854;2024-01-30T03:18:14;5.50;99.90
3528;DHT22;1778;47.966;7.854;2024-01-30T03:19:15;5.50;99.90
3528;DHT22;1778;47.966;7.854;2024-01-30T03:20:17;5.50;99.90
3528;DHT22;1778;47.966;7.854;2024-01-30T03:21:18;5.50;99.90
3528;DHT22;1778;47.966;7.854;2024-01-30T03:22:20;5.40;99.90
3528;DHT22;1778;47.966;7.854;2024-01-30T03:23:21;5.40;99.90
3528;DHT22;1778;47.966;7.854;2024-01-30T03:24:23;5.30;99.90
3528;DHT22;1778;47.966;7.854;2024-01-30T03:25:24;5.40;99.90
3528;DHT22;1778;47.966;7.854;2024-01-30T03:26:27;5.40;99.90
3528;DHT22;1778;47.966;7.854;2024-01-30T03:27:28;5.30;99.90
3528;DHT22;1778;47.966;7.854;2024-01-30T03:28:30;5.40;99.90
3528;DHT22;1778;47.966;7.854;2024-01-30T03:29:31;5.40;99.90
3528;DHT22;1778;47.966;7.854;2024-01-30T03:30:34;5.40;99.90
3528;DHT22;1778;47.966;7.854;2024-01-30T03:31:36;5.40;99.90
3528;DHT22;1778;47.966;7.854;2024-01-30T03:32:37;5.40;99.90
3528;DHT22;1778;47.966;7.854;2024-01-30T03:35:56;5.50;99.90
3528;DHT22;1778;47.966;7.854;2024-01-30T03:36:58;5.40;99.90
3528;DHT22;1778;47.966;7.854;2024-01-30T03:37:59;5.40;99.90
3528;DHT22;1778;47.966;7.854;2024-01-30T03:39:01;5.30;99.90
3528;DHT22;1778;47.966;7.854;2024-01-30T03:40:03;5.30;99.90
3528;DHT22;1778;47.966;7.854;2024-01-30T03:41:10;5.40;99.90
3528;DHT22;1778;47.966;7.854;2024-01-30T03:42:12;5.40;99.90
3528;DHT22;1778;47.966;7.854;2024-01-30T03:43:13;5.40;99.90
3528;DHT22;1778;47.966;7.854;2024-01-30T03:44:15;5.40;99.90
3528;DHT22;1778;47.966;7.854;2024-01-30T03:45:16;5.40;99.90
3528;DHT22;1778;47.966;7.854;2024-01-30T03:46:21;5.40;99.90
3528;DHT22;1778;47.966;7.854;2024-01-30T03:47:22;5.40;99.90
3528;DHT22;1778;47.966;7.854;2024-01-30T03:48:24;5.40;99.90
3528;DHT22;1778;47.966;7.854;2024-01-30T03:49:26;5.40;99.90
3528;DHT22;1778;47.966;7.854;2024-01-30T03:50:28;5.50;99.90
3528;DHT22;1778;47.966;7.854;2024-01-30T03:51:30;5.50;99.90
3528;DHT22;1778;47.966;7.854;2024-01-30T03:52:31;5.50;99.90
3528;DHT22;1778;47.966;7.854;2024-01-30T03:53:33;5.40;99.90
3528;DHT22;1778;47.966;7.854;2024-01-30T03:54:34;5.40;99.90
3528;DHT22;1778;47.966;7.854;2024-01-30T03:55:35;5.40;99.90
3528;DHT22;1778;47.966;7.854;2024-01-30T03:56:37;5.40;99.90
3528;DHT22;1778;47.966;7.854;2024-01-30T03:57:39;5.40;99.90
3528;DHT22;1778;47.966;7.854;2024-01-30T03:58:40;5.30;99.90
3528;DHT22;1778;47.966;7.854;2024-01-30T03:59:42;5.40;99.90
3528;DHT22;1778;47.966;7.854;2024-01-30T04:00:44;5.40;99.90
3528;DHT22;1778;47.966;7.854;2024-01-30T04:01:46;5.50;99.90
3528;DHT22;1778;47.966;7.854;2024-01-30T04:02:48;5.40;99.90
3528;DHT22;1778;47.966;7.854;2024-01-30T04:03:52;5.40;99.90
3528;DHT22;1778;47.966;7.854;2024-01-30T04:04:54;5.30;99.90
3528;DHT22;1778;47.966;7.854;2024-01-30T04:05:55;5.40;99.90
3528;DHT22;1778;47.966;7.854;2024-01-30T04:06:56;5.30;99.90
3528;DHT22;1778;47.966;7.854;2024-01-30T04:07:58;5.30;99.90
3528;DHT22;1778;47.966;7.854;2024-01-30T04:09:00;5.30;99.90
3528;DHT22;1778;47.966;7.854;2024-01-30T04:10:01;5.30;99.90
3528;DHT22;1778;47.966;7.854;2024-01-30T04:11:06;5.30;99.90
3528;DHT22;1778;47.966;7.854;2024-01-30T04:12:08;5.30;99.90
3528;DHT22;1778;47.966;7.854;2024-01-30T04:13:09;5.30;99.90
3528;DHT22;1778;47.966;7.854;2024-01-30T04:14:12;5.30;99.90
3528;DHT22;1778;47.966;7.854;2024-01-30T04:15:14;5.20;99.90
3528;DHT22;1778;47.966;7.854;2024-01-30T04:16:22;5.30;99.90
3528;DHT22;1778;47.966;7.854;2024-01-30T04:17:24;5.30;99.90
3528;DHT22;1778;47.966;7.854;2024-01-30T04:18:26;5.30;99.90
3528;DHT22;1778;47.966;7.854;2024-01-30T04:19:27;5.30;99.90
3528;DHT22;1778;47.966;7.854;2024-01-30T04:20:29;5.30;99.90
3528;DHT22;1778;47.966;7.854;2024-01-30T04:21:31;5.30;99.90
3528;DHT22;1778;47.966;7.854;2024-01-30T04:22:32;5.30;99.90
3528;DHT22;1778;47.966;7.854;2024-01-30T04:23:34;5.20;99.90
3528;DHT22;1778;47.966;7.854;2024-01-30T04:24:35;5.20;99.90
3528;DHT22;1778;47.966;7.854;2024-01-30T04:25:37;5.20;99.90
3528;DHT22;1778;47.966;7.854;2024-01-30T04:26:38;5.20;99.90
3528;DHT22;1778;47.966;7.854;2024-01-30T04:27:40;5.20;99.90
3528;DHT22;1778;47.966;7.854;2024-01-30T04:28:42;5.20;99.90
3528;DHT22;1778;47.966;7.854;2024-01-30T04:29:43;5.20;99.90
3528;DHT22;1778;47.966;7.854;2024-01-30T04:30:45;5.20;99.90
3528;DHT22;1778;47.966;7.854;2024-01-30T04:31:46;5.10;99.90
3528;DHT22;1778;47.966;7.854;2024-01-30T04:32:48;5.20;99.90
3528;DHT22;1778;47.966;7.854;2024-01-30T04:33:49;5.20;99.90
3528;DHT22;1778;47.966;7.854;2024-01-30T04:34:51;5.20;99.90
3528;DHT22;1778;47.966;7.854;2024-01-30T04:35:52;5.20;99.90
3528;DHT22;1778;47.966;7.854;2024-01-30T04:36:54;5.10;99.90
3528;DHT22;1778;47.966;7.854;2024-01-30T04:37:56;5.20;99.90
3528;DHT22;1778;47.966;7.854;2024-01-30T04:38:57;5.20;99.90
3528;DHT22;1778;47.966;7.854;2024-01-30T04:39:59;5.20;99.90
3528;DHT22;1778;47.966;7.854;2024-01-30T04:41:01;5.20;99.90
3528;DHT22;1778;47.966;7.854;2024-01-30T04:42:02;5.20;99.90
3528;DHT22;1778;47.966;7.854;2024-01-30T04:43:07;5.20;99.90
3528;DHT22;1778;47.966;7.854;2024-01-30T04:44:08;5.30;99.90
3528;DHT22;1778;47.966;7.854;2024-01-30T04:45:10;5.30;99.90
3528;DHT22;1778;47.966;7.854;2024-01-30T04:46:11;5.30;99.90
3528;DHT22;1778;47.966;7.854;2024-01-30T04:47:13;5.30;99.90
3528;DHT22;1778;47.966;7.854;2024-01-30T04:48:14;5.30;99.90
3528;DHT22;1778;47.966;7.854;2024-01-30T04:49:16;5.30;99.90
3528;DHT22;1778;47.966;7.854;2024-01-30T04:50:17;5.30;99.90
3528;DHT22;1778;47.966;7.854;2024-01-30T04:51:20;5.30;99.90
3528;DHT22;1778;47.966;7.854;2024-01-30T04:52:21;5.30;99.90
3528;DHT22;1778;47.966;7.854;2024-01-30T04:53:23;5.30;99.90
3528;DHT22;1778;47.966;7.854;2024-01-30T04:54:24;5.40;99.90
3528;DHT22;1778;47.966;7.854;2024-01-30T04:55:26;5.50;99.90
3528;DHT22;1778;47.966;7.854;2024-01-30T04:56:27;5.40;99.90
3528;DHT22;1778;47.966;7.854;2024-01-30T04:57:29;5.40;99.90
3528;DHT22;1778;47.966;7.854;2024-01-30T04:58:30;5.40;99.90
3528;DHT22;1778;47.966;7.854;2024-01-30T04:59:32;5.50;99.90
3528;DHT22;1778;47.966;7.854;2024-01-30T05:00:33;5.50;99.90
3528;DHT22;1778;47.966;7.854;2024-01-30T05:01:35;5.50;99.90
3528;DHT22;1778;47.966;7.854;2024-01-30T05:02:36;5.50;99.90
3528;DHT22;1778;47.966;7.854;2024-01-30T05:03:38;5.50;99.90
3528;DHT22;1778;47.966;7.854;2024-01-30T05:04:41;5.50;99.90
3528;DHT22;1778;47.966;7.854;2024-01-30T05:05:43;5.40;99.90
3528;DHT22;1778;47.966;7.854;2024-01-30T05:06:44;5.50;99.90
3528;DHT22;1778;47.966;7.854;2024-01-30T05:07:46;5.50;99.90
3528;DHT22;1778;47.966;7.854;2024-01-30T05:08:47;5.40;99.90
3528;DHT22;1778;47.966;7.854;2024-01-30T05:09:49;5.40;99.90
3528;DHT22;1778;47.966;7.854;2024-01-30T05:10:51;5.40;99.90
3528;DHT22;1778;47.966;7.854;2024-01-30T05:11:52;5.40;99.90
3528;DHT22;1778;47.966;7.854;2024-01-30T05:12:54;5.40;99.90
3528;DHT22;1778;47.966;7.854;2024-01-30T05:13:56;5.50;99.90
3528;DHT22;1778;47.966;7.854;2024-01-30T05:14:57;5.50;99.90
3528;DHT22;1778;47.966;7.854;2024-01-30T05:16:01;5.50;99.90
3528;DHT22;1778;47.966;7.854;2024-01-30T05:17:03;5.50;99.90
3528;DHT22;1778;47.966;7.854;2024-01-30T05:18:04;5.50;99.90
3528;DHT22;1778;47.966;7.854;2024-01-30T05:19:06;5.50;99.90
3528;DHT22;1778;47.966;7.854;2024-01-30T05:20:08;5.60;99.90
3528;DHT22;1778;47.966;7.854;2024-01-30T05:21:12;5.60;99.90
3528;DHT22;1778;47.966;7.854;2024-01-30T05:22:13;5.50;99.90
3528;DHT22;1778;47.966;7.854;2024-01-30T05:23:17;5.60;99.90
3528;DHT22;1778;47.966;7.854;2024-01-30T05:24:19;5.70;99.90
3528;DHT22;1778;47.966;7.854;2024-01-30T05:25:21;5.70;99.90
3528;DHT22;1778;47.966;7.854;2024-01-30T05:26:24;5.70;99.90
3528;DHT22;1778;47.966;7.854;2024-01-30T05:27:26;5.70;99.90
3528;DHT22;1778;47.966;7.854;2024-01-30T05:28:29;5.70;99.90
3528;DHT22;1778;47.966;7.854;2024-01-30T05:29:31;5.70;99.90
3528;DHT22;1778;47.966;7.854;2024-01-30T05:30:33;5.70;99.90
3528;DHT22;1778;47.966;7.854;2024-01-30T05:31:35;5.70;99.90
3528;DHT22;1778;47.966;7.854;2024-01-30T05:32:36;5.70;99.90
3528;DHT22;1778;47.966;7.854;2024-01-30T05:33:38;5.70;99.90
3528;DHT22;1778;47.966;7.854;2024-01-30T05:34:39;5.70;99.90
3528;DHT22;1778;47.966;7.854;2024-01-30T05:35:41;5.70;99.90
3528;DHT22;1778;47.966;7.854;2024-01-30T05:36:42;5.80;99.90
3528;DHT22;1778;47.966;7.854;2024-01-30T05:37:44;5.80;99.90
3528;DHT22;1778;47.966;7.854;2024-01-30T05:38:45;5.80;99.90
3528;DHT22;1778;47.966;7.854;2024-01-30T05:39:47;5.80;99.90
3528;DHT22;1778;47.966;7.854;2024-01-30T05:40:49;5.90;99.90
3528;DHT22;1778;47.966;7.854;2024-01-30T05:41:50;5.90;99.90
3528;DHT22;1778;47.966;7.854;2024-01-30T05:42:52;5.90;99.90
3528;DHT22;1778;47.966;7.854;2024-01-30T05:43:53;5.90;99.90
3528;DHT22;1778;47.966;7.854;2024-01-30T05:44:55;5.90;99.90
3528;DHT22;1778;47.966;7.854;2024-01-30T05:45:56;5.90;99.90
3528;DHT22;1778;47.966;7.854;2024-01-30T05:46:58;5.90;99.90
3528;DHT22;1778;47.966;7.854;2024-01-30T05:47:59;6.00;99.90
3528;DHT22;1778;47.966;7.854;2024-01-30T05:49:01;6.00;99.90
3528;DHT22;1778;47.966;7.854;2024-01-30T05:50:02;6.00;99.90
3528;DHT22;1778;47.966;7.854;2024-01-30T05:51:04;6.00;99.90
3528;DHT22;1778;47.966;7.854;2024-01-30T05:52:08;5.90;99.90
3528;DHT22;1778;47.966;7.854;2024-01-30T05:53:09;5.90;99.90
3528;DHT22;1778;47.966;7.854;2024-01-30T05:54:11;5.90;99.90
3528;DHT22;1778;47.966;7.854;2024-01-30T05:55:16;5.90;99.90
3528;DHT22;1778;47.966;7.854;2024-01-30T05:56:18;5.90;99.90
3528;DHT22;1778;47.966;7.854;2024-01-30T05:57:20;6.00;99.90
3528;DHT22;1778;47.966;7.854;2024-01-30T05:58:21;6.00;99.90
3528;DHT22;1778;47.966;7.854;2024-01-30T05:59:23;5.90;99.90
3528;DHT22;1778;47.966;7.854;2024-01-30T06:00:24;6.00;99.90
3528;DHT22;1778;47.966;7.854;2024-01-30T06:01:26;6.00;99.90
3528;DHT22;1778;47.966;7.854;2024-01-30T06:02:27;6.00;99.90
3528;DHT22;1778;47.966;7.854;2024-01-30T06:03:29;6.00;99.90
3528;DHT22;1778;47.966;7.854;2024-01-30T06:04:30;6.10;99.90
3528;DHT22;1778;47.966;7.854;2024-01-30T06:05:32;6.10;99.90
3528;DHT22;1778;47.966;7.854;2024-01-30T06:06:33;6.20;99.90
3528;DHT22;1778;47.966;7.854;2024-01-30T06:07:35;6.10;99.90
3528;DHT22;1778;47.966;7.854;2024-01-30T06:08:37;6.20;99.90
3528;DHT22;1778;47.966;7.854;2024-01-30T06:09:39;6.30;99.90
3528;DHT22;1778;47.966;7.854;2024-01-30T06:10:42;6.30;99.90
3528;DHT22;1778;47.966;7.854;2024-01-30T06:11:44;6.30;99.90
3528;DHT22;1778;47.966;7.854;2024-01-30T06:12:46;6.30;99.90
3528;DHT22;1778;47.966;7.854;2024-01-30T06:13:48;6.30;99.90
3528;DHT22;1778;47.966;7.854;2024-01-30T06:14:49;6.20;99.90
3528;DHT22;1778;47.966;7.854;2024-01-30T06:15:51;6.10;99.90
3528;DHT22;1778;47.966;7.854;2024-01-30T06:16:52;6.20;99.90
3528;DHT22;1778;47.966;7.854;2024-01-30T06:17:54;6.20;99.90
3528;DHT22;1778;47.966;7.854;2024-01-30T06:18:56;6.30;99.90
3528;DHT22;1778;47.966;7.854;2024-01-30T06:19:58;6.30;99.90
3528;DHT22;1778;47.966;7.854;2024-01-30T06:21:00;6.20;99.90
3528;DHT22;1778;47.966;7.854;2024-01-30T06:22:03;6.30;99.90
3528;DHT22;1778;47.966;7.854;2024-01-30T06:23:05;6.20;99.90
3528;DHT22;1778;47.966;7.854;2024-01-30T06:24:06;6.30;99.90
3528;DHT22;1778;47.966;7.854;2024-01-30T06:25:08;6.30;99.90
3528;DHT22;1778;47.966;7.854;2024-01-30T06:26:09;6.30;99.90
3528;DHT22;1778;47.966;7.854;2024-01-30T06:27:11;6.20;99.90
3528;DHT22;1778;47.966;7.854;2024-01-30T06:28:13;6.20;99.90
3528;DHT22;1778;47.966;7.854;2024-01-30T06:29:14;6.20;99.90
3528;DHT22;1778;47.966;7.854;2024-01-30T06:30:20;6.20;99.90
3528;DHT22;1778;47.966;7.854;2024-01-30T06:31:22;6.20;99.90
3528;DHT22;1778;47.966;7.854;2024-01-30T06:32:23;6.30;99.90
3528;DHT22;1778;47.966;7.854;2024-01-30T06:33:25;6.30;99.90
3528;DHT22;1778;47.966;7.854;2024-01-30T06:34:27;6.30;99.90
3528;DHT22;1778;47.966;7.854;2024-01-30T06:35:28;6.20;99.90
3528;DHT22;1778;47.966;7.854;2024-01-30T06:36:30;6.20;99.90
3528;DHT22;1778;47.966;7.854;2024-01-30T06:37:32;6.20;99.90
3528;DHT22;1778;47.966;7.854;2024-01-30T06:38:34;6.30;99.90
3528;DHT22;1778;47.966;7.854;2024-01-30T06:39:35;6.30;99.90
3528;DHT22;1778;47.966;7.854;2024-01-30T06:40:37;6.30;99.90
3528;DHT22;1778;47.966;7.854;2024-01-30T06:41:38;6.30;99.90
3528;DHT22;1778;47.966;7.854;2024-01-30T06:42:40;6.30;99.90
3528;DHT22;1778;47.966;7.854;2024-01-30T06:43:41;6.20;99.90
3528;DHT22;1778;47.966;7.854;2024-01-30T06:44:42;6.30;99.90
3528;DHT22;1778;47.966;7.854;2024-01-30T06:45:44;6.30;99.90
3528;DHT22;1778;47.966;7.854;2024-01-30T06:46:46;6.20;99.90
3528;DHT22;1778;47.966;7.854;2024-01-30T06:47:47;6.20;99.90
3528;DHT22;1778;47.966;7.854;2024-01-30T06:48:49;6.10;99.90
3528;DHT22;1778;47.966;7.854;2024-01-30T06:49:50;6.20;99.90
3528;DHT22;1778;47.966;7.854;2024-01-30T06:50:56;6.10;99.90
3528;DHT22;1778;47.966;7.854;2024-01-30T06:51:58;6.10;99.90
3528;DHT22;1778;47.966;7.854;2024-01-30T06:53:00;6.20;99.90